Time;durP1;ratioP1;P1;durP2;ratioP2;P2;SDS_P1;SDS_P2;PMS_P1;PMS_P2;Temp;Humidity;BMP_temperature;BMP_pressure;BME280_temperature;BME280_humidity;BME280_pressure;Samples;Min_cycle;Max_cycle;Signal;HPM_P1;HPM_P2
2023/03/05 00:02:19;;;;;;;12.10;5.20;;;;;;;2.09;65.88;100100.35;130588;1256;114763;-74
2023/03/05 00:05:21;;;;;;;13.20;5.50;;;;;;;2.08;65.63;100102.30;130601;1254;114715;-74
2023/03/05 00:08:24;;;;;;;13.80;5.80;;;;;;;2.06;65.62;100097.95;130486;1259;115480;-74
2023/03/05 00:11:32;;;;;;;18.30;6.20;;;;;;;2.05;66.12;100094.09;130587;1256;114792;-74
2023/03/05 00:14:34;;;;;;;11.80;6.00;;;;;;;2.05;65.88;100093.55;130598;1257;128626;-73
2023/03/05 00:17:36;;;;;;;15.80;5.70;;;;;;;2.04;65.75;100091.80;130442;1253;114712;-73
2023/03/05 00:20:38;;;;;;;13.70;5.40;;;;;;;2.04;65.98;100098.16;130645;1264;114704;-74
2023/03/05 00:23:41;;;;;;;11.30;5.70;;;;;;;2.03;65.92;100098.70;130748;1253;114799;-74
2023/03/05 00:26:44;;;;;;;15.50;5.80;;;;;;;2.02;65.99;100092.90;130268;1266;115298;-74
2023/03/05 00:29:46;;;;;;;19.50;8.10;;;;;;;2.01;66.19;100087.27;130572;1254;114712;-74
2023/03/05 00:32:48;;;;;;;23.30;10.40;;;;;;;2.02;66.22;100088.86;130666;1254;114777;-73
2023/03/05 00:35:50;;;;;;;30.60;10.70;;;;;;;2.00;66.16;100081.66;130610;1256;128664;-73
2023/03/05 00:38:52;;;;;;;31.00;10.40;;;;;;;1.99;66.21;100077.98;130553;1256;115210;-74
2023/03/05 00:41:54;;;;;;;23.60;9.70;;;;;;;1.97;66.29;100070.09;130666;1256;114795;-74
2023/03/05 00:44:57;;;;;;;21.00;8.70;;;;;;;1.96;66.52;100069.93;130539;1256;114832;-74
2023/03/05 00:47:59;;;;;;;16.80;7.10;;;;;;;1.95;66.59;100070.30;130528;1256;114752;-74
2023/03/05 00:51:02;;;;;;;16.70;6.90;;;;;;;1.94;66.41;100056.06;130235;1254;114749;-73
2023/03/05 00:54:04;;;;;;;16.00;6.10;;;;;;;1.92;66.59;100047.45;130471;1253;115411;-73
2023/03/05 00:57:06;;;;;;;13.70;6.40;;;;;;;1.91;66.70;100046.77;130529;1254;127815;-74
2023/03/05 01:00:10;;;;;;;13.30;6.10;;;;;;;1.90;66.94;100049.43;130712;1254;115154;-74
2023/03/05 01:03:16;;;;;;;13.10;6.00;;;;;;;1.88;66.58;100044.02;130507;1259;114817;-73
2023/03/05 01:06:19;;;;;;;15.40;6.70;;;;;;;1.86;66.84;100039.98;130533;1256;114814;-74
2023/03/05 01:09:24;;;;;;;12.30;6.50;;;;;;;1.85;67.05;100043.89;130284;1256;114749;-73
2023/03/05 01:12:26;;;;;;;16.60;6.30;;;;;;;1.83;67.00;100036.16;130354;1263;128595;-73
2023/03/05 01:15:28;;;;;;;15.30;6.60;;;;;;;1.81;67.17;100034.45;130693;1256;115102;-74
2023/03/05 01:18:30;;;;;;;11.60;5.60;;;;;;;1.79;66.85;100039.58;130732;1256;114865;-73
2023/03/05 01:21:34;;;;;;;15.10;6.60;;;;;;;1.79;67.22;100027.64;130322;1256;114823;-73
2023/03/05 01:24:36;;;;;;;12.70;5.50;;;;;;;1.78;66.73;100022.54;130355;1260;250191;-73
2023/03/05 01:27:39;;;;;;;14.30;7.30;;;;;;;1.76;67.11;100018.52;130592;1256;114797;-74
2023/03/05 01:30:41;;;;;;;19.40;8.00;;;;;;;1.76;67.21;100017.30;130676;1259;114782;-73
2023/03/05 01:33:46;;;;;;;13.70;7.70;;;;;;;1.75;67.06;100012.18;130579;1253;128783;-73
2023/03/05 01:36:49;;;;;;;17.10;7.70;;;;;;;1.74;67.40;100008.00;130577;1256;116314;-73
2023/03/05 01:39:51;;;;;;;16.00;7.40;;;;;;;1.73;67.05;100006.25;130273;1257;114811;-72
2023/03/05 01:43:07;;;;;;;18.90;8.70;;;;;;;1.72;66.99;100004.16;129936;1259;114839;-73
2023/03/05 01:46:12;;;;;;;17.80;8.70;;;;;;;1.70;67.01;100003.31;130577;1254;114728;-73
2023/03/05 01:49:22;;;;;;;17.70;8.40;;;;;;;1.68;66.89;100003.51;130592;1256;128832;-72
2023/03/05 01:52:26;;;;;;;17.90;6.60;;;;;;;1.68;67.10;100001.58;130661;1256;115320;-72
2023/03/05 01:55:30;;;;;;;15.40;7.30;;;;;;;1.67;67.12;100000.36;130551;1254;114722;-73
2023/03/05 01:58:32;;;;;;;15.20;7.30;;;;;;;1.67;67.23;99994.73;130694;1256;115331;-73
2023/03/05 02:01:40;;;;;;;21.20;7.50;;;;;;;1.67;67.39;99993.14;130159;1254;114753;-73
2023/03/05 02:04:50;;;;;;;15.00;6.60;;;;;;;1.68;67.29;99989.27;130336;1266;127727;-72
2023/03/05 02:07:54;;;;;;;16.30;6.60;;;;;;;1.66;66.97;99992.28;130232;1270;115287;-73
2023/03/05 02:10:56;;;;;;;13.70;6.30;;;;;;;1.66;67.06;99991.77;130645;1276;114757;-71
2023/03/05 02:13:59;;;;;;;12.50;5.90;;;;;;;1.66;67.21;99988.93;130324;1257;114695;-73
2023/03/05 02:17:01;;;;;;;20.00;7.10;;;;;;;1.65;67.08;99986.84;130155;1276;114769;-73
2023/03/05 02:20:17;;;;;;;14.10;6.40;;;;;;;1.65;67.10;99991.79;130704;1257;116338;-73
2023/03/05 02:23:21;;;;;;;15.60;6.30;;;;;;;1.64;66.90;99994.43;130378;1259;128863;-75
2023/03/05 02:26:23;;;;;;;11.60;6.10;;;;;;;1.64;66.97;99991.27;130755;1256;115253;-72
2023/03/05 02:29:26;;;;;;;8.50;4.90;;;;;;;1.64;67.07;99990.05;130333;1256;115132;-73
2023/03/05 02:32:29;;;;;;;9.80;4.70;;;;;;;1.63;67.21;99990.23;130740;1253;115407;-73
2023/03/05 02:35:31;;;;;;;8.80;4.40;;;;;;;1.63;66.99;99991.46;130464;1256;114798;-73
2023/03/05 02:38:34;;;;;;;8.70;4.30;;;;;;;1.62;66.87;99985.67;130745;1276;114696;-73
2023/03/05 02:41:36;;;;;;;15.20;5.10;;;;;;;1.61;67.05;99981.30;130281;1276;127843;-72
2023/03/05 02:44:38;;;;;;;18.30;5.10;;;;;;;1.60;67.26;99973.73;130448;1257;114753;-72
2023/03/05 02:47:40;;;;;;;9.30;4.20;;;;;;;1.59;67.03;99968.65;130475;1276;114814;-72
2023/03/05 02:50:43;;;;;;;8.30;4.60;;;;;;;1.57;67.28;99971.85;130209;1256;114808;-72
2023/03/05 02:53:45;;;;;;;11.60;5.00;;;;;;;1.55;67.09;99965.90;130555;1259;115194;-73
2023/03/05 02:56:48;;;;;;;9.10;3.30;;;;;;;1.52;67.18;99966.31;130237;1257;114716;-73
2023/03/05 02:59:50;;;;;;;9.10;3.70;;;;;;;1.51;67.31;99963.69;130577;1256;114858;-73
2023/03/05 03:02:52;;;;;;;5.60;3.20;;;;;;;1.49;67.16;99961.27;130684;1256;114721;-75
2023/03/05 03:05:54;;;;;;;6.30;3.20;;;;;;;1.48;67.75;99958.29;130294;1259;115160;-72
2023/03/05 03:08:57;;;;;;;7.60;4.00;;;;;;;1.47;67.43;99952.67;130328;1256;114795;-74
2023/03/05 03:11:59;;;;;;;7.50;4.00;;;;;;;1.45;67.39;99944.45;130858;1254;114715;-74
2023/03/05 03:15:01;;;;;;;10.30;3.80;;;;;;;1.41;67.46;99945.73;130606;1259;114817;-74
2023/03/05 03:18:03;;;;;;;10.90;4.30;;;;;;;1.36;67.34;99945.98;130829;1257;115186;-74
2023/03/05 03:21:05;;;;;;;9.70;3.70;;;;;;;1.34;67.67;99942.16;130486;1254;116381;-74
2023/03/05 03:24:08;;;;;;;6.50;3.10;;;;;;;1.31;67.93;99936.60;130242;1256;127805;-74
2023/03/05 03:27:10;;;;;;;8.60;3.30;;;;;;;1.29;68.11;99933.27;130541;1257;114794;-74
2023/03/05 03:30:12;;;;;;;6.40;2.80;;;;;;;1.27;68.23;99924.86;130623;1257;115295;-73
2023/03/05 03:33:16;;;;;;;8.40;3.50;;;;;;;1.25;68.02;99924.37;129937;1257;115422;-74
2023/03/05 03:36:19;;;;;;;11.10;3.20;;;;;;;1.23;68.24;99922.30;130544;1257;115243;-73
2023/03/05 03:39:21;;;;;;;8.30;2.80;;;;;;;1.20;68.46;99918.64;130594;1256;114804;-72
2023/03/05 03:42:23;;;;;;;4.80;2.50;;;;;;;1.19;68.34;99913.92;130347;1260;115392;-72
2023/03/05 03:45:25;;;;;;;5.10;3.10;;;;;;;1.16;67.95;99906.25;130252;1256;128805;-72
2023/03/05 03:48:28;;;;;;;9.50;3.60;;;;;;;1.14;67.99;99903.30;130129;1260;114725;-72
2023/03/05 03:51:30;;;;;;;5.10;3.20;;;;;;;1.12;68.11;99898.75;130574;1256;115137;-73
2023/03/05 03:54:32;;;;;;;10.40;3.70;;;;;;;1.10;68.04;99898.42;130277;1266;114789;-73
2023/03/05 03:57:35;;;;;;;10.20;3.90;;;;;;;1.07;67.68;99888.63;130206;1256;114706;-73
2023/03/05 04:00:39;;;;;;;8.90;3.90;;;;;;;1.04;68.03;99886.05;130068;1260;114799;-73
2023/03/05 04:03:41;;;;;;;8.70;3.60;;;;;;;1.03;67.99;99878.87;130654;1257;115323;-73
2023/03/05 04:06:43;;;;;;;7.20;3.20;;;;;;;0.99;67.82;99877.69;130538;1257;114788;-73
2023/03/05 04:09:46;;;;;;;4.00;2.90;;;;;;;0.98;68.05;99873.84;130587;1260;114773;-72
2023/03/05 04:12:48;;;;;;;5.70;2.50;;;;;;;0.97;67.91;99870.17;130299;1257;114795;-72
2023/03/05 04:15:50;;;;;;;4.90;3.00;;;;;;;0.96;68.05;99871.07;130516;1258;114891;-72
2023/03/05 04:18:52;;;;;;;7.90;3.00;;;;;;;0.94;68.01;99865.98;130259;1254;114755;-72
2023/03/05 04:21:55;;;;;;;6.40;2.30;;;;;;;0.94;68.02;99863.19;130456;1266;114764;-72
2023/03/05 04:24:58;;;;;;;4.10;2.70;;;;;;;0.93;68.11;99856.70;130157;1276;127935;-72
2023/03/05 04:28:01;;;;;;;5.80;2.60;;;;;;;0.94;68.26;99857.04;130190;1257;114768;-73
2023/03/05 04:31:04;;;;;;;7.20;3.20;;;;;;;0.95;68.53;99849.28;130270;1266;114792;-72
2023/03/05 04:34:06;;;;;;;8.50;3.90;;;;;;;0.95;68.68;99845.94;130323;1266;114821;-72
2023/03/05 04:37:08;;;;;;;11.40;4.20;;;;;;;0.96;68.71;99838.20;130219;1267;114731;-72
2023/03/05 04:40:11;;;;;;;11.10;4.90;;;;;;;0.98;68.81;99835.17;130545;1254;114807;-72
2023/03/05 04:43:13;;;;;;;6.90;3.60;;;;;;;0.97;68.63;99834.30;130296;1266;128802;-71
2023/03/05 04:46:16;;;;;;;5.20;3.00;;;;;;;0.95;68.56;99826.60;130146;1273;114830;-72
2023/03/05 04:49:18;;;;;;;5.80;3.40;;;;;;;0.95;68.82;99826.59;130288;1257;114767;-72
2023/03/05 04:52:20;;;;;;;6.80;3.60;;;;;;;0.97;68.87;99824.30;130334;1276;114788;-72
2023/03/05 04:55:22;;;;;;;13.10;4.70;;;;;;;0.98;68.77;99818.64;130273;1276;114834;-72
2023/03/05 04:58:24;;;;;;;12.50;3.60;;;;;;;0.98;69.03;99818.11;130497;1267;114846;-72
2023/03/05 05:01:27;;;;;;;11.40;3.70;;;;;;;1.00;69.17;99818.77;130417;1257;114805;-73
2023/03/05 05:04:29;;;;;;;9.30;4.10;;;;;;;1.00;69.06;99813.48;130559;1257;128730;-73
2023/03/05 05:07:31;;;;;;;8.40;4.30;;;;;;;1.00;68.85;99811.56;130691;1260;115246;-73
2023/03/05 05:10:33;;;;;;;10.00;4.50;;;;;;;1.01;69.14;99812.08;130333;1257;121138;-73
2023/03/05 05:13:35;;;;;;;9.40;4.30;;;;;;;1.01;68.67;99813.45;130168;1257;114824;-72
2023/03/05 05:16:37;;;;;;;5.00;3.10;;;;;;;1.03;69.26;99815.55;130736;1255;115147;-73
2023/03/05 05:19:39;;;;;;;7.30;3.40;;;;;;;1.04;69.15;99815.89;130294;1258;115442;-73
2023/03/05 05:22:42;;;;;;;9.30;3.60;;;;;;;1.05;69.16;99823.77;130483;1259;114796;-72
2023/03/05 05:25:44;;;;;;;6.60;3.20;;;;;;;1.05;69.17;99822.17;130753;1263;114826;-73
2023/03/05 05:28:47;;;;;;;7.60;3.50;;;;;;;1.08;69.42;99816.69;130525;1256;115195;-72
2023/03/05 05:31:50;;;;;;;5.10;2.90;;;;;;;1.09;69.42;99813.48;130542;1257;114705;-73
2023/03/05 05:34:56;;;;;;;8.10;3.40;;;;;;;1.11;69.77;99806.79;130335;1256;114888;-73
2023/03/05 05:37:59;;;;;;;7.90;4.00;;;;;;;1.13;70.02;99807.10;130047;1254;115009;-72
2023/03/05 05:41:05;;;;;;;8.80;4.50;;;;;;;1.15;69.67;99804.27;130711;1257;114725;-73
2023/03/05 05:44:07;;;;;;;10.70;3.90;;;;;;;1.16;70.12;99801.96;130261;1266;129031;-73
2023/03/05 05:47:10;;;;;;;11.80;4.10;;;;;;;1.18;69.97;99800.15;130768;1261;114646;-73
2023/03/05 05:50:12;;;;;;;10.70;5.00;;;;;;;1.20;70.22;99798.52;130386;1258;115228;-73
2023/03/05 05:53:14;;;;;;;9.30;5.10;;;;;;;1.24;70.16;99795.11;130171;1276;114922;-73
2023/03/05 05:56:17;;;;;;;10.60;4.70;;;;;;;1.25;70.21;99795.80;130623;1257;114728;-72
2023/03/05 05:59:19;;;;;;;10.20;5.10;;;;;;;1.26;70.12;99790.84;130327;1266;114838;-73
2023/03/05 06:02:21;;;;;;;16.80;6.70;;;;;;;1.27;70.02;99791.17;130374;1259;116357;-73
2023/03/05 06:05:24;;;;;;;10.20;5.00;;;;;;;1.28;70.54;99787.29;130660;1257;129620;-73
2023/03/05 06:08:26;;;;;;;11.10;4.40;;;;;;;1.30;70.21;99784.98;130317;1258;115262;-73
2023/03/05 06:11:28;;;;;;;8.10;4.70;;;;;;;1.33;70.40;99784.55;130794;1267;115068;-73
2023/03/05 06:14:30;;;;;;;12.80;6.30;;;;;;;1.35;70.65;99784.88;130080;1254;114911;-73
2023/03/05 06:17:36;;;;;;;14.20;6.00;;;;;;;1.36;70.57;99778.67;130325;1276;115265;-73
2023/03/05 06:20:37;;;;;;;;;;;;;;;1.39;70.64;99775.11;130769;1257;115343;-73
2023/03/05 06:23:41;;;;;;;18.70;7.40;;;;;;;1.39;70.69;99776.01;130201;1255;114731;-73
2023/03/05 06:26:45;;;;;;;11.90;5.20;;;;;;;1.39;70.92;99771.25;130516;1258;114715;-73
2023/03/05 06:29:51;;;;;;;11.00;4.00;;;;;;;1.39;71.16;99767.72;130824;1257;114721;-73
2023/03/05 06:32:53;;;;;;;11.10;5.20;;;;;;;1.39;71.43;99766.48;130268;1260;114802;-73
2023/03/05 06:35:56;;;;;;;13.30;7.10;;;;;;;1.40;71.22;99762.05;130584;1257;114638;-72
2023/03/05 06:38:58;;;;;;;20.10;8.20;;;;;;;1.41;71.68;99758.52;130324;1276;114867;-72
2023/03/05 06:42:03;;;;;;;19.80;7.70;;;;;;;1.43;71.74;99755.86;130345;1276;115331;-72
2023/03/05 06:45:07;;;;;;;19.20;8.80;;;;;;;1.44;72.19;99753.36;130514;1257;116312;-72
2023/03/05 06:48:10;;;;;;;19.80;8.00;;;;;;;1.46;72.37;99756.83;130284;1254;115325;-72
2023/03/05 06:51:18;;;;;;;21.70;8.20;;;;;;;1.49;72.40;99758.54;129909;1259;114923;-73
2023/03/05 06:54:20;;;;;;;19.50;9.20;;;;;;;1.51;72.61;99760.07;130302;1257;114795;-72
2023/03/05 06:57:22;;;;;;;19.20;9.00;;;;;;;1.50;73.07;99762.21;130295;1257;114721;-72
2023/03/05 07:00:28;;;;;;;29.40;10.70;;;;;;;1.49;72.87;99767.17;130309;1266;114734;-71
2023/03/05 07:03:30;;;;;;;23.30;10.30;;;;;;;1.51;72.68;99764.48;130143;1259;115279;-71
2023/03/05 07:06:35;;;;;;;19.60;9.70;;;;;;;1.51;72.88;99766.05;130252;1257;114715;-73
2023/03/05 07:09:41;;;;;;;24.20;10.20;;;;;;;1.51;73.16;99767.64;130358;1254;114707;-72
2023/03/05 07:12:43;;;;;;;23.30;9.70;;;;;;;1.53;73.34;99766.72;130294;1257;114712;-72
2023/03/05 07:15:45;;;;;;;22.70;9.30;;;;;;;1.54;73.33;99765.46;130284;1254;114759;-72
2023/03/05 07:18:48;;;;;;;26.60;10.00;;;;;;;1.57;73.32;99763.66;130344;1257;114826;-72
2023/03/05 07:21:50;;;;;;;21.60;8.40;;;;;;;1.61;73.78;99761.80;130061;1276;115253;-72
2023/03/05 07:24:52;;;;;;;24.20;8.40;;;;;;;1.68;73.72;99757.61;130327;1257;115208;-72
2023/03/05 07:27:55;;;;;;;24.40;8.80;;;;;;;1.77;73.82;99756.73;130473;1257;114763;-72
2023/03/05 07:31:11;;;;;;;20.10;8.80;;;;;;;1.86;73.86;99755.10;130309;1267;114737;-72
2023/03/05 07:34:13;;;;;;;26.10;8.90;;;;;;;1.97;73.72;99755.38;130329;1270;114762;-73
2023/03/05 07:37:15;;;;;;;25.20;9.10;;;;;;;2.07;73.71;99750.40;130267;1258;114820;-71
2023/03/05 07:40:17;;;;;;;32.00;8.50;;;;;;;2.16;73.71;99744.72;130333;1257;115505;-71
2023/03/05 07:43:19;;;;;;;21.30;8.40;;;;;;;2.26;73.65;99742.53;130343;1256;115163;-72
2023/03/05 07:46:27;;;;;;;18.30;7.40;;;;;;;2.33;73.19;99738.12;130397;1256;115179;-72
2023/03/05 07:49:29;;;;;;;28.00;8.00;;;;;;;2.38;72.98;99740.13;130317;1258;114823;-72
2023/03/05 07:52:31;;;;;;;18.60;6.30;;;;;;;2.41;72.75;99740.58;130259;1257;114743;-71
2023/03/05 07:55:34;;;;;;;14.70;6.90;;;;;;;2.45;72.70;99738.53;130326;1254;114722;-72
2023/03/05 07:58:36;;;;;;;16.20;6.40;;;;;;;2.51;72.38;99735.05;130231;1271;128827;-72
2023/03/05 08:01:38;;;;;;;17.40;6.20;;;;;;;2.57;72.37;99734.20;130175;1267;114718;-74
2023/03/05 08:04:41;;;;;;;13.60;5.90;;;;;;;2.62;72.03;99730.71;130517;1257;114744;-73
2023/03/05 08:07:44;;;;;;;12.50;4.90;;;;;;;2.69;71.90;99730.35;130392;1267;114728;-73
2023/03/05 08:10:46;;;;;;;12.20;4.20;;;;;;;2.71;71.25;99727.66;130648;1258;114680;-72
2023/03/05 08:13:49;;;;;;;37.10;13.00;;;;;;;2.72;71.08;99728.16;130288;1267;114821;-72
2023/03/05 08:16:51;;;;;;;41.90;18.00;;;;;;;2.71;71.00;99729.95;130232;1263;114664;-74
2023/03/05 08:19:57;;;;;;;30.10;13.20;;;;;;;2.71;71.07;99734.01;130166;1266;114818;-72
2023/03/05 08:22:59;;;;;;;21.10;8.90;;;;;;;2.69;70.62;99737.74;130339;1257;115172;-72
2023/03/05 08:26:11;;;;;;;18.10;5.20;;;;;;;2.72;70.69;99737.31;130291;1257;114865;-72
2023/03/05 08:29:13;;;;;;;11.70;3.90;;;;;;;2.80;70.13;99739.41;130353;1256;114772;-72
2023/03/05 08:32:15;;;;;;;12.20;5.50;;;;;;;2.86;70.07;99740.11;130400;1263;114731;-73
2023/03/05 08:35:17;;;;;;;5.60;3.50;;;;;;;2.93;69.93;99740.11;130852;1257;114737;-73
2023/03/05 08:38:20;;;;;;;13.70;4.80;;;;;;;2.97;69.36;99743.38;130208;1254;128945;-73
2023/03/05 08:41:25;;;;;;;9.70;2.20;;;;;;;2.96;68.97;99736.85;130207;1254;114730;-74
2023/03/05 08:44:27;;;;;;;;;;;;;;;3.01;69.14;99744.31;130667;1254;114728;-74
2023/03/05 08:47:29;;;;;;;22.60;5.90;;;;;;;3.10;69.06;99743.54;130261;1258;114936;-72
2023/03/05 08:50:31;;;;;;;8.30;3.80;;;;;;;3.17;68.85;99738.04;130316;1254;115154;-66
2023/03/05 08:53:33;;;;;;;7.20;3.00;;;;;;;3.26;68.98;99735.86;130216;1257;114827;-63
2023/03/05 08:56:35;;;;;;;6.70;2.20;;;;;;;3.33;68.42;99735.10;130171;1277;114753;-65
2023/03/05 08:59:37;;;;;;;10.20;3.00;;;;;;;3.36;68.39;99733.08;130340;1254;114881;-63
2023/03/05 09:02:39;;;;;;;9.20;2.70;;;;;;;3.39;68.24;99735.66;129999;1260;114732;-65
2023/03/05 09:05:42;;;;;;;12.50;3.20;;;;;;;3.37;68.10;99734.48;130371;1258;114754;-65
2023/03/05 09:08:44;;;;;;;10.30;3.20;;;;;;;3.38;67.98;99737.11;130436;1258;116088;-68
2023/03/05 09:11:46;;;;;;;8.60;3.90;;;;;;;3.40;67.94;99736.86;129968;1254;114833;-66
2023/03/05 09:14:48;;;;;;;9.50;3.80;;;;;;;3.40;68.15;99734.04;130286;1257;115711;-64
2023/03/05 09:17:50;;;;;;;8.60;3.90;;;;;;;3.46;68.27;99733.33;130434;1257;115182;-65
2023/03/05 09:20:53;;;;;;;11.00;3.90;;;;;;;3.54;68.56;99730.09;130304;1257;114709;-67
2023/03/05 09:23:58;;;;;;;12.50;5.10;;;;;;;3.59;68.13;99732.24;130376;1257;115423;-64
2023/03/05 09:27:00;;;;;;;15.20;5.00;;;;;;;3.62;68.12;99731.79;129997;1270;114844;-65
2023/03/05 09:30:05;;;;;;;13.80;6.30;;;;;;;3.68;68.13;99730.55;130324;1253;114750;-65
2023/03/05 09:33:07;;;;;;;15.50;7.40;;;;;;;3.65;67.97;99735.24;130060;1257;115180;-66
2023/03/05 09:36:21;;;;;;;16.10;8.70;;;;;;;3.58;67.79;99734.03;130253;1257;114859;-65
2023/03/05 09:39:23;;;;;;;13.90;6.20;;;;;;;3.54;68.34;99734.69;130030;1254;115288;-66
2023/03/05 09:42:47;;;;;;;11.80;5.90;;;;;;;3.47;68.11;99738.39;130287;1257;114661;-65
2023/03/05 09:45:58;;;;;;;23.90;9.30;;;;;;;3.40;68.19;99740.04;130273;1257;114801;-67
2023/03/05 09:49:32;;;;;;;17.30;7.30;;;;;;;3.39;68.44;99737.44;129943;1275;115360;-66
2023/03/05 09:52:58;;;;;;;24.20;8.30;;;;;;;3.46;68.59;99734.94;130318;1258;128613;-66
2023/03/05 09:56:04;;;;;;;18.00;6.60;;;;;;;3.59;68.75;99733.67;130024;1261;115249;-67
2023/03/05 09:59:12;;;;;;;12.90;5.20;;;;;;;3.67;68.58;99722.28;130377;1257;115369;-68
2023/03/05 10:02:22;;;;;;;12.50;5.80;;;;;;;3.74;68.55;99725.24;129985;1263;114840;-64
2023/03/05 10:05:44;;;;;;;9.40;5.80;;;;;;;3.82;68.13;99719.70;130095;1254;114901;-61
2023/03/05 10:08:53;;;;;;;14.10;5.00;;;;;;;3.93;68.55;99719.38;130068;1257;128195;-65
2023/03/05 10:12:12;;;;;;;13.30;4.80;;;;;;;4.10;68.28;99713.34;130349;1258;115176;-65
2023/03/05 10:15:21;;;;;;;15.40;5.70;;;;;;;4.29;68.49;99711.84;129998;1257;114871;-66
2023/03/05 10:18:33;;;;;;;12.00;6.30;;;;;;;4.53;68.31;99708.94;130309;1256;114754;-65
2023/03/05 10:21:38;;;;;;;13.30;7.10;;;;;;;4.75;67.99;99704.63;130039;1257;116446;-64
2023/03/05 10:24:50;;;;;;;14.10;5.10;;;;;;;4.91;67.53;99699.29;129957;1262;128664;-65
2023/03/05 10:27:58;;;;;;;14.40;6.70;;;;;;;5.05;67.39;99694.88;130312;1253;115177;-65
2023/03/05 10:31:16;;;;;;;9.40;4.90;;;;;;;5.19;66.84;99690.98;130374;1275;114715;-67
2023/03/05 10:34:47;;;;;;;11.30;4.70;;;;;;;5.28;66.12;99687.66;130376;1256;115106;-65
2023/03/05 10:38:02;;;;;;;10.90;4.00;;;;;;;5.42;66.05;99686.95;130293;1257;114751;-66
2023/03/05 10:41:31;;;;;;;8.50;3.80;;;;;;;5.57;65.89;99683.36;130357;1258;129454;-64
2023/03/05 10:44:58;;;;;;;21.00;8.40;;;;;;;5.83;65.64;99672.10;130199;1254;114715;-66
2023/03/05 10:48:06;;;;;;;9.10;4.00;;;;;;;6.06;65.25;99661.45;130073;1257;114910;-67
2023/03/05 10:51:19;;;;;;;12.70;5.00;;;;;;;6.15;64.16;99657.18;130298;1254;114762;-66
2023/03/05 10:54:33;;;;;;;8.50;4.10;;;;;;;6.13;63.83;99650.88;130016;1277;114961;-64
2023/03/05 10:57:35;;;;;;;21.50;8.60;;;;;;;6.04;63.13;99649.10;129994;1257;126958;-64
2023/03/05 11:00:38;;;;;;;13.50;7.00;;;;;;;5.93;62.85;99652.00;130245;1254;114837;-65
2023/03/05 11:03:57;;;;;;;11.60;5.60;;;;;;;5.82;62.92;99651.56;130256;1258;115402;-67
2023/03/05 11:07:06;;;;;;;11.80;4.90;;;;;;;5.75;63.25;99647.97;130209;1254;114789;-65
2023/03/05 11:10:17;;;;;;;14.00;5.80;;;;;;;5.67;63.17;99650.05;130270;1259;114821;-66
2023/03/05 11:13:25;;;;;;;12.40;6.40;;;;;;;5.58;62.94;99653.60;130068;1273;129094;-67
2023/03/05 11:16:45;;;;;;;20.70;7.30;;;;;;;5.44;62.85;99652.87;130357;1257;115348;-64
2023/03/05 11:19:48;;;;;;;16.60;5.50;;;;;;;5.40;63.35;99643.48;130387;1257;114777;-64
2023/03/05 11:23:25;;;;;;;19.10;8.70;;;;;;;5.40;63.17;99642.80;130091;1269;114821;-65
2023/03/05 11:26:27;;;;;;;20.90;9.00;;;;;;;5.38;63.16;99638.23;130327;1269;114788;-65
2023/03/05 11:29:31;;;;;;;18.60;8.30;;;;;;;5.40;63.18;99633.73;130243;1270;114708;-64
2023/03/05 11:32:33;;;;;;;16.70;8.80;;;;;;;5.48;63.44;99632.20;130155;1254;114876;-64
2023/03/05 11:35:38;;;;;;;14.70;6.00;;;;;;;5.60;63.54;99622.85;130248;1254;114735;-66
2023/03/05 11:38:46;;;;;;;;;;;;;;;5.75;63.09;99615.89;130342;1257;115327;-64
2023/03/05 11:41:54;;;;;;;13.90;5.50;;;;;;;5.86;63.11;99607.27;130280;1254;114716;-64
2023/03/05 11:45:00;;;;;;;9.90;4.50;;;;;;;6.00;62.51;99599.83;130398;1257;128636;-64
2023/03/05 11:48:11;;;;;;;7.90;4.40;;;;;;;6.10;62.65;99597.13;130009;1260;114855;-65
2023/03/05 11:51:21;;;;;;;8.40;3.90;;;;;;;6.26;62.56;99599.64;130234;1258;114875;-64
2023/03/05 11:54:30;;;;;;;8.00;4.10;;;;;;;6.37;62.46;99593.30;130060;1257;114903;-64
2023/03/05 11:57:41;;;;;;;10.50;5.30;;;;;;;6.43;62.12;99590.02;129966;1276;114924;-65
2023/03/05 12:00:45;;;;;;;9.60;5.00;;;;;;;6.45;61.89;99586.91;130369;1258;129070;-64
2023/03/05 12:03:47;;;;;;;11.90;5.80;;;;;;;6.42;61.82;99584.38;130229;1277;115527;-64
2023/03/05 12:07:00;;;;;;;10.20;4.60;;;;;;;6.38;61.60;99579.75;130329;1269;114821;-65
2023/03/05 12:10:03;;;;;;;15.10;8.00;;;;;;;6.32;61.32;99580.20;129956;1263;114821;-64
2023/03/05 12:13:42;;;;;;;13.20;6.70;;;;;;;6.29;61.38;99577.67;130247;1255;114860;-65
2023/03/05 12:17:02;;;;;;;11.40;6.30;;;;;;;6.25;61.61;99581.56;130322;1257;128889;-66
2023/03/05 12:20:27;;;;;;;12.00;5.80;;;;;;;6.21;61.72;99587.04;130235;1257;115131;-65
2023/03/05 12:24:00;;;;;;;14.10;5.20;;;;;;;6.06;62.03;99580.80;130334;1254;114837;-64
2023/03/05 12:27:02;;;;;;;9.50;5.50;;;;;;;5.81;62.49;99583.22;130264;1259;114836;-64
2023/03/05 12:30:07;;;;;;;7.80;3.70;;;;;;;5.60;62.58;99581.05;130184;1257;114821;-64
2023/03/05 12:33:40;;;;;;;13.60;4.70;;;;;;;5.43;62.90;99576.27;130304;1259;128178;-66
2023/03/05 12:36:42;;;;;;;9.30;4.10;;;;;;;5.28;63.18;99582.15;129910;1264;115382;-65
2023/03/05 12:39:48;;;;;;;8.50;4.70;;;;;;;5.23;63.60;99576.67;129796;1265;116719;-68
2023/03/05 12:42:58;;;;;;;10.30;6.00;;;;;;;5.25;63.60;99571.11;129582;1268;114881;-64
2023/03/05 12:46:23;;;;;;;9.90;5.00;;;;;;;5.24;63.75;99567.43;129726;1267;114836;-65
2023/03/05 12:49:27;;;;;;;6.90;4.00;;;;;;;5.26;63.69;99560.09;129917;1273;127580;-65
2023/03/05 12:52:31;;;;;;;7.70;3.90;;;;;;;5.27;63.63;99558.27;129551;1262;115267;-67
2023/03/05 12:55:36;;;;;;;6.40;3.20;;;;;;;5.32;63.65;99560.58;129845;1260;115370;-66
2023/03/05 12:58:42;;;;;;;11.30;4.50;;;;;;;5.41;63.88;99555.27;129922;1263;114891;-66
2023/03/05 13:01:49;;;;;;;7.10;4.40;;;;;;;5.50;63.34;99553.30;129839;1263;114901;-65
2023/03/05 13:04:55;;;;;;;8.90;4.90;;;;;;;5.58;63.44;99554.41;129851;1262;126540;-64
2023/03/05 13:08:25;;;;;;;10.80;4.80;;;;;;;5.60;63.02;99552.16;129564;1258;114889;-63
2023/03/05 13:11:30;;;;;;;7.00;3.30;;;;;;;5.55;62.36;99553.09;129357;1261;114803;-64
2023/03/05 13:14:43;;;;;;;7.50;4.20;;;;;;;5.49;62.04;99551.73;130393;1273;114747;-64
2023/03/05 13:17:54;;;;;;;11.20;4.30;;;;;;;5.33;61.87;99551.32;130062;1264;114893;-65
2023/03/05 13:21:04;;;;;;;10.40;4.40;;;;;;;5.30;62.37;99552.17;129985;1262;128742;-65
2023/03/05 13:24:15;;;;;;;9.30;4.40;;;;;;;5.31;62.45;99550.18;129939;1259;226462;-64
2023/03/05 13:27:43;;;;;;;6.80;4.20;;;;;;;5.26;62.21;99555.32;130003;1260;114824;-64
2023/03/05 13:31:12;;;;;;;10.00;4.90;;;;;;;5.23;62.39;99557.74;130081;1261;114901;-64
2023/03/05 13:34:32;;;;;;;9.60;4.70;;;;;;;5.19;62.27;99551.50;129941;1271;114795;-65
2023/03/05 13:37:36;;;;;;;14.50;6.10;;;;;;;5.13;62.30;99551.02;129826;1260;128678;-63
2023/03/05 13:40:40;;;;;;;12.20;5.00;;;;;;;5.06;62.46;99557.16;130072;1261;115004;-68
2023/03/05 13:43:48;;;;;;;10.00;5.00;;;;;;;4.99;62.48;99556.52;130336;1253;114731;-68
2023/03/05 13:46:50;;;;;;;12.60;5.20;;;;;;;4.90;62.38;99561.33;130317;1254;114827;-67
2023/03/05 13:50:01;;;;;;;13.60;6.20;;;;;;;4.79;62.57;99566.85;130479;1254;114715;-67
2023/03/05 13:53:33;;;;;;;12.50;5.80;;;;;;;4.65;62.69;99577.79;130233;1260;128864;-65
2023/03/05 13:56:35;;;;;;;16.30;7.60;;;;;;;4.50;62.58;99575.70;129726;1265;115388;-69
2023/03/05 13:59:38;;;;;;;27.90;12.50;;;;;;;4.35;62.49;99574.83;129777;1267;115262;-65
2023/03/05 14:02:42;;;;;;;11.80;7.00;;;;;;;4.25;62.55;99574.48;130214;1262;114911;-67
2023/03/05 14:05:45;;;;;;;11.90;5.60;;;;;;;4.18;62.70;99577.55;129820;1265;116065;-68
2023/03/05 14:09:01;;;;;;;8.60;3.90;;;;;;;4.07;62.54;99571.89;129576;1284;114816;-68
2023/03/05 14:12:29;;;;;;;10.80;4.90;;;;;;;3.98;62.09;99561.80;129434;1267;114878;-67
2023/03/05 14:15:34;;;;;;;8.90;4.90;;;;;;;3.90;62.23;99558.34;129694;1264;114940;-68
2023/03/05 14:18:37;;;;;;;11.50;5.90;;;;;;;3.86;62.32;99558.31;130165;1267;114877;-67